Time;durP1;ratioP1;P1;durP2;ratioP2;P2;SDS_P1;SDS_P2;PMS_P1;PMS_P2;Temp;Humidity;BMP_temperature;BMP_pressure;BME280_temperature;BME280_humidity;BME280_pressure;Samples;Min_cycle;Max_cycle;Signal;HPM_P1;HPM_P2
2024/04/10 00:02:24;;;;;;;1.65;0.30;;;9.60;99.90;;;;;;5525800;26;20008;-77
2024/04/10 00:04:51;;;;;;;7.72;1.15;;;9.50;99.90;;;;;;5528146;25;20437;-77
2024/04/10 00:07:17;;;;;;;4.07;0.30;;;9.50;99.90;;;;;;5549232;25;20070;-77
2024/04/10 00:09:43;;;;;;;4.65;0.30;;;9.40;99.90;;;;;;5523172;26;20013;-77
2024/04/10 00:12:08;;;;;;;6.03;0.20;;;9.40;99.90;;;;;;5524706;26;20009;-77
2024/04/10 00:14:37;;;;;;;11.82;1.58;;;9.40;99.90;;;;;;5526681;26;19998;-78
2024/04/10 00:17:04;;;;;;;12.60;0.77;;;9.30;99.90;;;;;;5534150;25;20012;-77
2024/04/10 00:19:30;;;;;;;4.05;0.75;;;9.40;99.90;;;;;;5534253;25;20072;-78
2024/04/10 00:21:55;;;;;;;9.88;0.82;;;9.30;99.90;;;;;;5529904;25;20520;-77
2024/04/10 00:24:21;;;;;;;6.30;0.60;;;9.30;99.90;;;;;;5524974;26;19997;-78
2024/04/10 00:26:50;;;;;;;4.53;0.85;;;9.40;99.90;;;;;;5526047;25;20374;-78
2024/04/10 00:29:16;;;;;;;5.20;0.80;;;9.20;99.90;;;;;;5524486;26;20008;-77
2024/04/10 00:31:42;;;;;;;10.48;0.80;;;9.20;99.90;;;;;;5524376;26;20029;-78
2024/04/10 00:34:08;;;;;;;6.13;0.77;;;9.20;99.90;;;;;;5526197;26;20329;-78
2024/04/10 00:36:34;;;;;;;11.35;0.35;;;9.10;99.90;;;;;;5525692;26;20074;-76
2024/04/10 00:39:00;;;;;;;13.90;1.10;;;9.10;99.90;;;;;;5524085;26;20349;-77
2024/04/10 00:41:26;;;;;;;8.95;1.45;;;9.10;99.90;;;;;;5526548;25;19997;-77
2024/04/10 00:43:51;;;;;;;6.55;0.88;;;9.00;99.90;;;;;;5526891;26;20473;-77
2024/04/10 00:46:21;;;;;;;4.47;0.50;;;9.10;99.90;;;;;;5524236;26;20001;-77
2024/04/10 00:48:48;;;;;;;8.35;0.75;;;9.00;99.90;;;;;;5528192;25;20009;-77
2024/04/10 00:51:18;;;;;;;11.60;1.60;;;9.00;99.90;;;;;;5529463;25;20004;-78
2024/04/10 00:53:44;;;;;;;6.15;0.45;;;;;;;;;;5526746;26;19994;-77
2024/04/10 00:56:10;;;;;;;9.02;1.52;;;9.00;99.90;;;;;;5529316;26;19994;-78
2024/04/10 00:58:38;;;;;;;8.82;0.70;;;9.00;99.90;;;;;;5526215;26;19994;-77
2024/04/10 01:01:04;;;;;;;3.90;1.00;;;9.00;99.90;;;;;;5528290;25;20001;-77
2024/04/10 01:03:32;;;;;;;4.85;1.02;;;9.00;99.90;;;;;;5528381;25;20090;-77
2024/04/10 01:06:02;;;;;;;8.38;0.70;;;9.00;99.90;;;;;;5528568;25;19997;-77
2024/04/10 01:08:29;;;;;;;9.52;1.13;;;9.00;99.90;;;;;;5528537;25;20065;-77
2024/04/10 01:10:57;;;;;;;8.90;0.30;;;9.00;99.90;;;;;;5527309;26;20004;-77
2024/04/10 01:13:25;;;;;;;7.43;0.85;;;9.00;99.90;;;;;;5527171;26;20012;-78
2024/04/10 01:15:50;;;;;;;7.25;0.50;;;9.00;99.90;;;;;;5526671;26;20005;-77
2024/04/10 01:18:16;;;;;;;8.95;0.68;;;9.00;99.90;;;;;;5528316;26;20008;-77
2024/04/10 01:20:42;;;;;;;8.35;1.58;;;9.10;99.90;;;;;;5528822;25;19997;-77
2024/04/10 01:23:07;;;;;;;15.18;2.10;;;9.10;99.90;;;;;;5527502;26;19997;-77
2024/04/10 01:25:33;;;;;;;9.10;0.70;;;9.10;99.90;;;;;;5527997;26;20009;-77
2024/04/10 01:27:58;;;;;;;7.82;0.55;;;9.00;99.90;;;;;;5528614;26;19993;-78
2024/04/10 01:30:24;;;;;;;9.77;0.80;;;9.10;99.90;;;;;;5528159;26;19993;-78
2024/04/10 01:32:50;;;;;;;10.85;0.95;;;9.00;99.90;;;;;;5526433;26;20464;-77
2024/04/10 01:35:16;;;;;;;12.13;0.50;;;9.10;99.90;;;;;;5526002;26;20074;-78
2024/04/10 01:37:43;;;;;;;11.45;1.08;;;9.00;99.90;;;;;;5527731;25;20062;-77
2024/04/10 01:40:09;;;;;;;8.35;0.75;;;9.10;99.90;;;;;;5526438;26;20442;-77
2024/04/10 01:42:35;;;;;;;3.97;0.82;;;9.00;99.90;;;;;;5526115;26;19994;-77
2024/04/10 01:45:03;;;;;;;7.88;0.68;;;9.00;99.90;;;;;;5526687;26;20072;-79
2024/04/10 01:47:29;;;;;;;7.80;1.17;;;9.00;99.90;;;;;;5527874;25;20009;-78
2024/04/10 01:49:55;;;;;;;14.13;0.95;;;9.00;99.90;;;;;;5527575;26;20416;-77
2024/04/10 01:52:21;;;;;;;10.77;0.82;;;9.10;99.90;;;;;;5528498;25;20332;-77
2024/04/10 01:54:47;;;;;;;12.70;1.23;;;9.40;99.90;;;;;;5526032;26;20451;-77
2024/04/10 01:57:13;;;;;;;7.53;1.73;;;9.10;99.90;;;;;;5525766;26;20356;-77
2024/04/10 01:59:39;;;;;;;8.88;0.75;;;9.10;99.90;;;;;;5527522;25;19994;-77
2024/04/10 02:02:04;;;;;;;7.40;0.40;;;9.20;99.90;;;;;;5527741;26;20004;-77
2024/04/10 02:04:30;;;;;;;9.35;0.95;;;9.10;99.90;;;;;;5527578;26;19997;-78
2024/04/10 02:06:56;;;;;;;7.63;1.10;;;9.10;99.90;;;;;;5528221;26;20005;-77
2024/04/10 02:09:22;;;;;;;9.20;0.65;;;9.10;99.90;;;;;;5525959;26;20009;-77
2024/04/10 02:11:47;;;;;;;12.55;1.17;;;9.10;99.90;;;;;;5525617;26;19993;-77
2024/04/10 02:14:13;;;;;;;10.57;0.80;;;9.10;99.90;;;;;;5525141;26;20046;-78
2024/04/10 02:16:40;;;;;;;9.32;1.08;;;9.10;99.90;;;;;;5525068;26;20061;-78
2024/04/10 02:19:06;;;;;;;10.52;0.88;;;9.10;99.90;;;;;;5524895;26;19997;-77
2024/04/10 02:21:32;;;;;;;5.03;0.50;;;9.20;99.90;;;;;;5526714;26;20468;-77
2024/04/10 02:23:57;;;;;;;8.93;0.63;;;9.20;99.90;;;;;;5525095;26;20420;-77
2024/04/10 02:26:23;;;;;;;6.18;0.60;;;9.10;99.90;;;;;;5527387;25;20064;-78
2024/04/10 02:28:49;;;;;;;5.07;0.40;;;9.10;99.90;;;;;;5526650;26;19993;-77
2024/04/10 02:31:14;;;;;;;5.50;0.28;;;9.10;99.90;;;;;;5525067;26;20477;-77
2024/04/10 02:33:40;;;;;;;10.20;0.60;;;9.10;99.90;;;;;;5527576;25;20004;-77
2024/04/10 02:36:07;;;;;;;8.50;0.43;;;9.10;99.90;;;;;;5528526;26;20006;-77
2024/04/10 02:38:35;;;;;;;8.80;1.10;;;9.20;99.90;;;;;;5528253;26;20025;-77
2024/04/10 02:41:02;;;;;;;10.90;0.55;;;9.10;99.90;;;;;;5530344;25;20004;-77
2024/04/10 02:43:28;;;;;;;6.30;0.40;;;10.70;99.90;;;;;;5530423;25;20004;-77
2024/04/10 02:45:58;;;;;;;7.65;1.38;;;9.30;99.90;;;;;;5530218;26;20009;-77
2024/04/10 02:48:24;;;;;;;9.35;0.65;;;9.20;99.90;;;;;;5529886;25;20030;-77
2024/04/10 02:50:51;;;;;;;13.05;1.30;;;9.20;99.90;;;;;;5528705;26;20453;-78
2024/04/10 02:53:16;;;;;;;12.35;0.57;;;9.20;99.90;;;;;;5528474;26;19989;-77
2024/04/10 02:55:43;;;;;;;11.15;0.85;;;9.20;99.90;;;;;;5530314;26;19997;-77
2024/04/10 02:58:10;;;;;;;8.77;0.45;;;9.30;99.90;;;;;;5530031;25;20004;-77
2024/04/10 03:00:44;;;;;;;5.72;0.60;;;9.20;99.90;;;;;;5529824;25;20006;-77
2024/04/10 03:03:10;;;;;;;9.63;1.00;;;9.20;99.90;;;;;;5530275;25;20005;-77
2024/04/10 03:05:35;;;;;;;10.88;1.70;;;9.50;99.90;;;;;;5530178;25;19997;-77
2024/04/10 03:08:01;;;;;;;10.25;0.88;;;9.20;99.90;;;;;;5528177;26;20005;-78
2024/04/10 03:10:27;;;;;;;7.93;0.63;;;9.20;99.90;;;;;;5530012;26;20332;-77
2024/04/10 03:12:52;;;;;;;5.68;0.13;;;9.30;99.90;;;;;;5528578;26;19990;-77
2024/04/10 03:15:18;;;;;;;7.97;1.35;;;9.20;99.90;;;;;;5529785;26;20394;-77
2024/04/10 03:17:46;;;;;;;12.65;1.20;;;9.20;99.90;;;;;;5527594;26;19990;-77
2024/04/10 03:20:12;;;;;;;8.48;0.77;;;9.20;99.90;;;;;;5529959;25;20081;-77
2024/04/10 03:22:39;;;;;;;4.45;0.52;;;9.10;99.90;;;;;;5530501;25;20001;-77
2024/04/10 03:25:05;;;;;;;4.53;0.25;;;9.10;99.90;;;;;;5530021;25;19997;-77
2024/04/10 03:27:30;;;;;;;9.32;0.60;;;9.00;99.90;;;;;;5529881;25;20004;-77
2024/04/10 03:29:56;;;;;;;12.38;2.28;;;9.00;99.90;;;;;;5530611;26;20449;-77
2024/04/10 03:32:21;;;;;;;5.10;0.30;;;9.00;99.90;;;;;;5531253;26;20009;-78
2024/04/10 03:34:47;;;;;;;6.95;0.15;;;9.00;99.90;;;;;;5527571;26;20436;-77
2024/04/10 03:37:14;;;;;;;5.53;0.63;;;9.30;99.90;;;;;;5530679;26;20003;-77
2024/04/10 03:39:41;;;;;;;6.30;0.40;;;9.00;99.90;;;;;;5531090;26;19993;-77
2024/04/10 03:42:07;;;;;;;10.20;0.98;;;9.00;99.90;;;;;;5531523;25;20005;-77
2024/04/10 03:44:35;;;;;;;11.88;0.98;;;8.90;99.90;;;;;;5529923;25;20521;-77
2024/04/10 03:47:02;;;;;;;4.22;0.52;;;8.90;99.90;;;;;;5528557;25;20005;-78
2024/04/10 03:49:28;;;;;;;3.33;0.47;;;8.90;99.90;;;;;;5529882;25;20030;-77
2024/04/10 03:51:54;;;;;;;12.75;0.57;;;8.90;99.90;;;;;;5529657;25;20062;-77
2024/04/10 03:54:21;;;;;;;12.65;1.20;;;8.90;99.90;;;;;;5529511;26;19994;-77
2024/04/10 03:56:47;;;;;;;8.15;0.88;;;8.90;99.90;;;;;;5529274;25;20033;-77
2024/04/10 03:59:13;;;;;;;10.63;0.98;;;9.00;99.90;;;;;;5529437;26;20066;-77
2024/04/10 04:01:38;;;;;;;7.05;1.17;;;9.00;99.90;;;;;;5528974;25;20004;-77
2024/04/10 04:04:05;;;;;;;8.60;1.40;;;9.00;99.90;;;;;;5528011;26;20008;-78
2024/04/10 04:06:31;;;;;;;10.88;0.65;;;9.00;99.90;;;;;;5529118;25;20001;-77
2024/04/10 04:08:56;;;;;;;10.15;1.27;;;9.00;99.90;;;;;;5527219;26;19998;-77
2024/04/10 04:11:22;;;;;;;6.65;0.40;;;9.00;99.90;;;;;;5527726;26;20004;-77
2024/04/10 04:13:48;;;;;;;12.02;0.30;;;9.00;99.90;;;;;;5529214;25;20469;-77
2024/04/10 04:16:14;;;;;;;7.03;1.15;;;9.00;99.90;;;;;;5529318;26;19994;-77
2024/04/10 04:18:40;;;;;;;4.40;0.50;;;8.90;99.90;;;;;;5529333;26;20076;-76
2024/04/10 04:21:06;;;;;;;12.73;1.10;;;9.00;99.90;;;;;;5529724;25;20021;-77
2024/04/10 04:23:32;;;;;;;8.35;0.63;;;9.00;99.90;;;;;;5527280;26;20008;-77
2024/04/10 04:25:58;;;;;;;3.35;0.10;;;9.00;99.90;;;;;;5527904;26;20066;-77
2024/04/10 04:28:24;;;;;;;14.43;0.20;;;9.00;99.90;;;;;;5529406;25;20457;-77
2024/04/10 04:30:50;;;;;;;8.27;0.65;;;9.00;99.90;;;;;;5527158;26;19997;-77
2024/04/10 04:33:18;;;;;;;6.10;0.17;;;8.90;99.90;;;;;;5529267;25;20010;-77
2024/04/10 04:35:45;;;;;;;10.18;1.05;;;9.00;99.90;;;;;;5527805;26;20026;-77
2024/04/10 04:38:10;;;;;;;7.63;0.10;;;8.90;99.90;;;;;;5527006;26;19993;-77
2024/04/10 04:40:36;;;;;;;10.52;1.27;;;8.90;99.90;;;;;;5527689;26;20021;-77
2024/04/10 04:43:08;;;;;;;5.68;0.68;;;8.90;99.90;;;;;;5527488;26;20000;-78
2024/04/10 04:45:37;;;;;;;10.93;0.32;;;8.90;99.90;;;;;;5527431;26;19997;-77
2024/04/10 04:48:07;;;;;;;6.97;0.20;;;8.90;99.90;;;;;;5527347;26;20001;-77
2024/04/10 04:50:34;;;;;;;7.85;0.70;;;8.90;99.90;;;;;;5526227;25;20386;-78
2024/04/10 04:53:00;;;;;;;5.18;0.70;;;8.90;99.90;;;;;;5516059;26;20001;-77
2024/04/10 04:55:26;;;;;;;15.32;0.80;;;8.90;99.90;;;;;;5524635;26;20013;-77
2024/04/10 04:57:52;;;;;;;5.82;0.47;;;8.90;99.90;;;;;;5527111;25;20001;-77
2024/04/10 05:00:22;;;;;;;4.55;0.57;;;8.90;99.90;;;;;;5524057;26;20069;-77
2024/04/10 05:02:47;;;;;;;13.68;0.77;;;8.90;99.90;;;;;;5523791;25;20001;-77
2024/04/10 05:05:18;;;;;;;8.27;0.50;;;8.90;99.90;;;;;;5526488;26;20001;-77
2024/04/10 05:07:44;;;;;;;5.00;0.13;;;9.80;99.90;;;;;;5526529;25;19997;-78
2024/04/10 05:10:11;;;;;;;4.15;0.47;;;8.90;99.90;;;;;;5524625;26;20069;-77
2024/04/10 05:12:38;;;;;;;9.05;0.68;;;8.90;99.90;;;;;;5526172;25;20001;-77
2024/04/10 05:15:06;;;;;;;4.63;0.10;;;8.90;99.90;;;;;;5526689;25;20032;-77
2024/04/10 05:17:32;;;;;;;6.50;0.85;;;8.90;99.90;;;;;;5525679;25;20001;-77
2024/04/10 05:19:58;;;;;;;7.45;0.90;;;8.80;99.90;;;;;;5524860;26;20012;-77
2024/04/10 05:22:24;;;;;;;8.15;1.13;;;8.90;99.90;;;;;;5526572;25;19997;-77
2024/04/10 05:24:50;;;;;;;16.80;0.45;;;8.90;99.90;;;;;;5526473;25;19998;-77
2024/04/10 05:27:23;;;;;;;6.25;0.40;;;8.90;99.90;;;;;;5525562;26;20001;-76
2024/04/10 05:29:59;;;;;;;8.10;0.95;;;9.80;99.90;;;;;;5525771;26;20005;-77
2024/04/10 05:32:28;;;;;;;7.32;0.68;;;9.80;99.90;;;;;;5511247;26;19998;-77
2024/04/10 05:34:54;;;;;;;;;;;9.00;99.90;;;;;;5513309;26;20003;-77
2024/04/10 05:37:21;;;;;;;6.28;1.17;;;9.00;99.90;;;;;;5518310;26;19934;-77
2024/04/10 05:40:01;;;;;;;4.43;0.40;;;9.00;99.90;;;;;;5523806;26;20001;-77
2024/04/10 05:42:26;;;;;;;9.55;0.40;;;9.40;99.90;;;;;;5519239;26;20002;-77
2024/04/10 05:44:52;;;;;;;7.85;0.20;;;9.10;99.90;;;;;;5518641;26;20430;-77
2024/04/10 05:47:18;;;;;;;11.95;0.82;;;9.20;99.90;;;;;;5523754;26;20015;-77
2024/04/10 05:49:43;;;;;;;7.68;0.52;;;9.20;99.90;;;;;;5523952;26;19998;-77
2024/04/10 05:52:09;;;;;;;6.43;0.30;;;9.30;99.90;;;;;;5525422;26;20009;-78
2024/04/10 05:54:35;;;;;;;2.95;0.47;;;9.30;99.90;;;;;;5525599;26;20012;-77
2024/04/10 05:57:01;;;;;;;12.20;1.15;;;;;;;;;;5525552;26;20081;-76
2024/04/10 05:59:27;;;;;;;11.25;3.20;;;9.30;99.90;;;;;;5526087;25;20013;-77
2024/04/10 06:01:53;;;;;;;4.57;0.20;;;9.40;99.90;;;;;;5526565;25;20008;-77
2024/04/10 06:04:19;;;;;;;7.82;0.60;;;9.40;99.90;;;;;;5525165;26;19998;-79
2024/04/10 06:06:44;;;;;;;2.55;0.40;;;9.50;99.90;;;;;;5524575;25;20009;-77
2024/04/10 06:09:10;;;;;;;6.53;0.40;;;9.50;99.90;;;;;;5525596;26;20009;-77
2024/04/10 06:11:35;;;;;;;12.07;1.20;;;11.20;99.90;;;;;;5523486;26;20415;-77
2024/04/10 06:14:01;;;;;;;6.97;0.38;;;9.60;99.90;;;;;;5528314;26;20034;-76
2024/04/10 06:16:26;;;;;;;7.82;0.30;;;9.60;99.90;;;;;;5526649;25;20091;-78
2024/04/10 06:18:53;;;;;;;7.18;0.85;;;9.50;99.90;;;;;;5528111;26;20012;-77
2024/04/10 06:21:19;;;;;;;10.88;0.52;;;9.50;99.90;;;;;;5527185;25;20002;-78
2024/04/10 06:23:44;;;;;;;5.55;0.40;;;9.40;99.90;;;;;;5526871;25;20009;-78
2024/04/10 06:26:10;;;;;;;12.50;0.98;;;9.30;99.90;;;;;;5527171;26;19998;-78
2024/04/10 06:28:36;;;;;;;6.68;0.20;;;9.30;99.90;;;;;;5523990;26;20002;-76
2024/04/10 06:31:03;;;;;;;5.53;0.20;;;9.30;99.90;;;;;;5528665;26;20107;-78
2024/04/10 06:33:30;;;;;;;7.05;0.43;;;9.30;99.90;;;;;;5532972;25;20461;-77
2024/04/10 06:36:04;;;;;;;10.23;0.40;;;9.30;99.90;;;;;;5523120;26;20340;-77
2024/04/10 06:38:31;;;;;;;9.70;0.45;;;9.50;99.90;;;;;;5529544;25;20001;-76
2024/04/10 06:40:58;;;;;;;6.30;0.50;;;9.60;99.90;;;;;;5525630;26;20074;-77
2024/04/10 06:43:26;;;;;;;8.70;1.40;;;9.60;99.90;;;;;;5525159;25;19997;-78
2024/04/10 06:46:02;;;;;;;8.32;0.22;;;9.70;99.90;;;;;;5525365;26;20068;-78
2024/04/10 06:48:29;;;;;;;7.10;0.00;;;9.80;99.90;;;;;;5529569;25;20041;-77
2024/04/10 06:50:58;;;;;;;8.85;0.68;;;9.80;99.90;;;;;;5525169;26;20008;-77
2024/04/10 06:53:24;;;;;;;6.97;0.95;;;9.70;99.90;;;;;;5530262;25;20069;-77
2024/04/10 06:55:58;;;;;;;5.18;0.10;;;9.70;99.90;;;;;;5525583;26;20021;-78
2024/04/10 06:58:25;;;;;;;9.13;0.60;;;9.80;99.90;;;;;;5529397;25;20024;-78
2024/04/10 07:01:05;;;;;;;11.48;1.20;;;9.90;99.90;;;;;;5524960;26;20098;-78
2024/04/10 07:03:32;;;;;;;7.22;0.85;;;10.00;99.90;;;;;;5526468;25;20341;-77
2024/04/10 07:06:09;;;;;;;11.73;0.47;;;10.10;99.90;;;;;;5525518;26;20002;-78
2024/04/10 07:08:36;;;;;;;6.93;1.23;;;10.20;99.90;;;;;;5527150;25;20013;-77
2024/04/10 07:11:04;;;;;;;4.65;0.63;;;10.40;99.90;;;;;;5523773;26;20449;-76
2024/04/10 07:13:30;;;;;;;8.68;0.40;;;10.40;99.90;;;;;;5527084;25;20001;-75
2024/04/10 07:16:01;;;;;;;5.80;0.40;;;10.50;99.90;;;;;;5520929;26;19997;-75
2024/04/10 07:18:28;;;;;;;14.70;0.88;;;10.60;99.90;;;;;;5522248;25;20001;-76
2024/04/10 07:21:01;;;;;;;6.22;0.60;;;;;;;;;;5521814;26;20001;-76
2024/04/10 07:23:27;;;;;;;1.70;0.52;;;10.90;99.90;;;;;;5523381;26;20406;-77
2024/04/10 07:25:53;;;;;;;8.10;0.47;;;11.00;99.90;;;;;;5519563;26;20010;-76
2024/04/10 07:28:19;;;;;;;10.88;1.45;;;11.00;99.90;;;;;;5524115;25;20008;-76
2024/04/10 07:30:51;;;;;;;8.20;0.47;;;11.00;99.90;;;;;;5525054;25;20049;-76
2024/04/10 07:33:16;;;;;;;13.73;0.75;;;11.00;99.90;;;;;;5521875;26;20020;-76
2024/04/10 07:35:43;;;;;;;10.27;0.50;;;11.00;99.90;;;;;;5524899;26;20523;-77
2024/04/10 07:38:09;;;;;;;6.03;0.52;;;10.90;99.90;;;;;;5525249;25;20456;-77
2024/04/10 07:40:35;;;;;;;8.23;0.50;;;11.00;99.90;;;;;;5522927;26;20068;-77
2024/04/10 07:43:00;;;;;;;7.30;0.93;;;11.10;99.90;;;;;;5525208;25;20424;-76
2024/04/10 07:45:29;;;;;;;6.72;0.05;;;11.30;99.90;;;;;;5524661;26;20076;-76
2024/04/10 07:47:55;;;;;;;;;;;11.40;99.90;;;;;;5523442;26;20020;-75
2024/04/10 07:50:20;;;;;;;5.40;0.28;;;11.70;99.90;;;;;;5528408;25;19924;-76
2024/04/10 07:52:46;;;;;;;6.78;0.25;;;11.70;99.90;;;;;;5524683;25;20067;-76
2024/04/10 07:55:12;;;;;;;4.63;0.28;;;11.70;99.90;;;;;;5524820;26;20001;-76
2024/04/10 07:57:39;;;;;;;5.68;0.35;;;11.60;99.90;;;;;;5522343;26;19997;-77
2024/04/10 08:00:08;;;;;;;6.28;0.65;;;11.60;99.90;;;;;;5522397;26;20453;-77
2024/04/10 08:02:35;;;;;;;5.93;0.47;;;11.70;99.90;;;;;;5522872;25;19993;-76
2024/04/10 08:05:00;;;;;;;2.80;0.30;;;11.80;99.90;;;;;;5524887;25;20370;-76
2024/04/10 08:07:26;;;;;;;4.35;0.60;;;12.00;99.90;;;;;;5522745;26;20008;-76
2024/04/10 08:09:52;;;;;;;7.45;0.50;;;12.00;99.90;;;;;;5522956;26;20525;-75
2024/04/10 08:12:17;;;;;;;5.30;0.20;;;12.10;99.90;;;;;;5524740;25;20016;-76
2024/04/10 08:14:43;;;;;;;5.47;0.35;;;12.20;99.90;;;;;;5523095;26;20070;-77
2024/04/10 08:17:09;;;;;;;4.95;0.25;;;12.20;99.90;;;;;;5521914;26;19997;-76
2024/04/10 08:19:37;;;;;;;6.95;0.32;;;12.10;99.90;;;;;;5524121;25;20021;-77
2024/04/10 08:22:02;;;;;;;11.65;0.95;;;12.10;99.90;;;;;;5523779;25;19997;-76
2024/04/10 08:24:28;;;;;;;2.95;0.55;;;12.20;99.90;;;;;;5522236;26;19993;-76
2024/04/10 08:26:54;;;;;;;5.88;0.20;;;12.40;99.90;;;;;;5521972;26;20523;-76
2024/04/10 08:29:19;;;;;;;5.13;0.38;;;12.40;99.90;;;;;;5524313;26;20013;-76
2024/04/10 08:31:45;;;;;;;7.68;0.95;;;12.50;99.90;;;;;;5521085;25;19994;-77
2024/04/10 08:34:11;;;;;;;10.18;0.63;;;12.50;99.90;;;;;;5524198;25;20339;-77
2024/04/10 08:36:36;;;;;;;5.72;0.17;;;12.40;99.90;;;;;;5519579;25;19994;-76
2024/04/10 08:39:03;;;;;;;2.78;0.30;;;12.30;99.90;;;;;;5523853;25;20028;-77
2024/04/10 08:41:29;;;;;;;4.50;0.20;;;12.30;99.90;;;;;;5524492;26;20087;-75
2024/04/10 08:43:56;;;;;;;3.65;0.10;;;12.30;99.90;;;;;;5529219;25;20009;-76
2024/04/10 08:46:26;;;;;;;7.50;0.22;;;12.40;99.90;;;;;;5521477;26;19997;-75
2024/04/10 08:48:56;;;;;;;9.07;0.45;;;12.30;99.90;;;;;;5521809;26;19997;-75
2024/04/10 08:51:23;;;;;;;5.85;0.32;;;12.40;99.90;;;;;;5524005;25;20064;-75
2024/04/10 08:53:52;;;;;;;6.35;0.10;;;12.40;99.90;;;;;;5527873;25;20005;-77
2024/04/10 08:56:18;;;;;;;10.52;0.10;;;12.50;99.90;;;;;;5524283;26;20014;-76
2024/04/10 08:58:44;;;;;;;6.03;0.38;;;12.60;99.90;;;;;;5522803;25;20013;-77
2024/04/10 09:01:10;;;;;;;5.22;0.32;;;12.80;99.90;;;;;;5523211;26;19993;-76
2024/04/10 09:03:37;;;;;;;5.82;0.32;;;12.90;99.90;;;;;;5521329;26;20047;-77
2024/04/10 09:06:07;;;;;;;4.95;0.75;;;12.90;99.90;;;;;;5521065;26;20033;-76
2024/04/10 09:08:33;;;;;;;4.85;0.20;;;12.80;99.90;;;;;;5524093;25;20001;-76
2024/04/10 09:10:59;;;;;;;8.20;0.25;;;12.70;99.90;;;;;;5523603;25;20020;-76
2024/04/10 09:13:24;;;;;;;4.55;0.60;;;12.80;99.90;;;;;;5519852;25;20434;-76
2024/04/10 09:16:00;;;;;;;1.77;0.35;;;13.10;99.90;;;;;;5521470;26;20364;-76
2024/04/10 09:18:26;;;;;;;3.97;0.20;;;13.40;99.90;;;;;;5521508;25;20013;-75
2024/04/10 09:21:08;;;;;;;5.47;0.03;;;13.40;99.90;;;;;;5523423;26;20105;-75
2024/04/10 09:23:34;;;;;;;1.10;0.00;;;13.40;99.90;;;;;;5519598;26;20009;-76
2024/04/10 09:26:00;;;;;;;2.25;0.00;;;13.20;99.90;;;;;;5521671;26;20002;-76
2024/04/10 09:28:25;;;;;;;6.68;0.00;;;12.90;99.90;;;;;;5523240;25;20108;-76
2024/04/10 09:30:56;;;;;;;3.25;0.10;;;12.70;99.90;;;;;;5507667;25;19994;-75
2024/04/10 09:33:24;;;;;;;8.27;0.85;;;12.50;99.90;;;;;;5523499;25;20001;-76
2024/04/10 09:35:51;;;;;;;7.38;0.35;;;12.40;99.90;;;;;;5522954;26;20009;-76
2024/04/10 09:38:17;;;;;;;3.22;0.00;;;12.40;99.90;;;;;;5523030;25;20353;-77
2024/04/10 09:40:52;;;;;;;3.47;0.30;;;12.20;99.90;;;;;;5523407;25;20389;-76
2024/04/10 09:43:22;;;;;;;3.75;0.00;;;12.20;99.90;;;;;;5522008;25;20016;-77
2024/04/10 09:45:56;;;;;;;5.15;0.20;;;12.20;99.90;;;;;;5524115;26;20005;-80
2024/04/10 09:48:25;;;;;;;5.82;0.47;;;12.00;99.90;;;;;;5524286;25;20009;-76
2024/04/10 09:50:56;;;;;;;1.50;0.00;;;12.00;99.90;;;;;;5524630;25;20009;-77
2024/04/10 09:53:23;;;;;;;1.38;0.00;;;12.00;99.90;;;;;;5524261;25;20005;-77
2024/04/10 09:55:49;;;;;;;4.60;0.00;;;12.00;99.90;;;;;;5523905;26;20476;-79
2024/04/10 09:58:15;;;;;;;6.97;0.30;;;11.90;99.90;;;;;;5523728;25;20642;-78
2024/04/10 10:00:41;;;;;;;4.28;0.10;;;12.10;99.90;;;;;;5526196;25;20009;-78
2024/04/10 10:03:09;;;;;;;10.05;0.20;;;12.30;99.90;;;;;;5526511;25;20001;-79
2024/04/10 10:05:39;;;;;;;3.25;0.00;;;12.60;99.90;;;;;;5523874;26;20009;-78
2024/04/10 10:08:15;;;;;;;3.85;0.22;;;12.70;99.90;;;;;;5524539;25;20001;-78
2024/04/10 10:10:45;;;;;;;2.42;0.00;;;12.90;99.90;;;;;;5524725;26;20005;-78
2024/04/10 10:13:12;;;;;;;2.30;0.00;;;12.90;99.90;;;;;;5524342;25;20012;-78
2024/04/10 10:15:39;;;;;;;6.35;0.08;;;12.90;99.90;;;;;;5523391;26;20013;-78
2024/04/10 10:18:06;;;;;;;4.22;0.00;;;13.20;99.90;;;;;;5523767;26;19997;-78
2024/04/10 10:20:33;;;;;;;2.03;0.20;;;13.30;99.90;;;;;;5524608;25;20002;-77
2024/04/10 10:23:03;;;;;;;2.33;0.10;;;13.60;99.90;;;;;;5524907;25;19997;-76
2024/04/10 10:25:29;;;;;;;2.67;0.00;;;13.80;99.90;;;;;;5523572;26;19998;-76
2024/04/10 10:28:09;;;;;;;2.15;0.03;;;13.90;99.90;;;;;;5519953;25;20030;-77
2024/04/10 10:30:35;;;;;;;5.95;0.00;;;13.90;99.90;;;;;;5520865;26;20008;-78
2024/04/10 10:33:03;;;;;;;1.48;0.00;;;13.70;99.90;;;;;;5517230;26;20087;-77
2024/04/10 10:35:28;;;;;;;3.78;0.50;;;13.70;99.90;;;;;;5521873;26;20002;-77
2024/04/10 10:37:55;;;;;;;6.68;0.10;;;13.60;99.90;;;;;;5520999;26;19998;-77
2024/04/10 10:40:23;;;;;;;2.80;0.80;;;13.60;99.90;;;;;;5521807;26;19998;-76
2024/04/10 10:42:59;;;;;;;4.78;0.00;;;13.60;99.90;;;;;;5520851;26;20017;-77
2024/04/10 10:45:24;;;;;;;1.15;0.00;;;13.70;98.90;;;;;;5521935;26;20042;-77
2024/04/10 10:47:50;;;;;;;1.35;0.00;;;13.70;99.10;;;;;;5520378;26;20009;-78
2024/04/10 10:50:17;;;;;;;0.65;0.00;;;13.60;98.00;;;;;;5521195;26;20001;-78
2024/04/10 10:52:43;;;;;;;0.73;0.00;;;13.60;99.20;;;;;;5520062;25;20009;-78
2024/04/10 10:55:17;;;;;;;2.08;0.28;;;13.80;97.60;;;;;;5524122;25;20002;-78
2024/04/10 10:57:43;;;;;;;5.05;0.55;;;13.70;98.40;;;;;;5524475;25;20005;-78
2024/04/10 11:00:17;;;;;;;5.03;0.00;;;14.10;99.60;;;;;;5523890;26;20448;-78
2024/04/10 11:02:43;;;;;;;2.40;0.00;;;14.10;99.90;;;;;;5530899;25;20009;-78
2024/04/10 11:05:12;;;;;;;4.10;0.10;;;14.20;97.00;;;;;;5524218;26;20383;-78
2024/04/10 11:07:39;;;;;;;2.63;0.08;;;14.20;98.60;;;;;;5498665;25;20020;-76
2024/04/10 11:10:10;;;;;;;4.38;0.43;;;14.40;98.10;;;;;;5514495;26;20001;-78
2024/04/10 11:12:37;;;;;;;0.43;0.00;;;14.50;99.50;;;;;;5525488;25;20001;-78
2024/04/10 11:15:12;;;;;;;7.32;0.30;;;15.10;97.50;;;;;;5524845;26;20004;-77
2024/04/10 11:17:38;;;;;;;4.80;0.00;;;15.20;95.90;;;;;;5531066;25;20068;-78
2024/04/10 11:20:11;;;;;;;1.27;0.00;;;15.20;96.90;;;;;;5524024;26;20452;-77
2024/04/10 11:22:37;;;;;;;5.32;0.10;;;15.30;95.50;;;;;;5523670;25;20085;-78
2024/04/10 11:25:03;;;;;;;2.72;0.13;;;15.50;94.80;;;;;;5523550;26;20070;-78
2024/04/10 11:27:29;;;;;;;1.50;0.00;;;15.50;95.70;;;;;;5526841;25;20016;-76
2024/04/10 11:29:54;;;;;;;1.40;0.00;;;15.50;96.10;;;;;;5517807;26;19998;-75
2024/04/10 11:32:20;;;;;;;4.68;0.00;;;15.30;95.70;;;;;;5525806;25;20417;-76
2024/04/10 11:34:46;;;;;;;2.45;0.00;;;15.40;95.70;;;;;;5523231;26;20024;-76
2024/04/10 11:37:12;;;;;;;3.58;0.00;;;15.40;95.70;;;;;;5524553;26;20068;-75
2024/04/10 11:39:38;;;;;;;0.57;0.00;;;15.50;95.30;;;;;;5524627;25;20033;-76
2024/04/10 11:42:04;;;;;;;3.22;0.08;;;15.30;93.80;;;;;;5520320;26;20102;-75
2024/04/10 11:44:29;;;;;;;1.70;0.10;;;15.30;94.00;;;;;;5526434;25;20013;-75
2024/04/10 11:46:55;;;;;;;0.25;0.00;;;15.70;97.30;;;;;;5523601;26;20449;-75
2024/04/10 11:49:21;;;;;;;2.70;0.45;;;16.00;95.40;;;;;;5523365;26;19997;-76
2024/04/10 11:51:47;;;;;;;2.42;0.28;;;16.30;93.60;;;;;;5524392;26;20520;-75
2024/04/10 11:54:13;;;;;;;3.40;0.60;;;16.10;92.00;;;;;;5523965;25;20029;-75
2024/04/10 11:56:39;;;;;;;1.00;0.00;;;16.10;93.10;;;;;;5523234;26;20077;-75
2024/04/10 11:59:04;;;;;;;1.58;0.00;;;16.10;93.40;;;;;;5522864;26;20045;-75
2024/04/10 12:01:30;;;;;;;2.40;0.00;;;16.10;91.60;;;;;;5525208;26;20034;-75
2024/04/10 12:03:56;;;;;;;3.25;0.00;;;15.90;91.40;;;;;;5524884;25;19997;-75
2024/04/10 12:06:22;;;;;;;1.55;0.20;;;;;;;;;;5523657;26;20357;-75
2024/04/10 12:08:47;;;;;;;2.63;0.45;;;15.60;92.40;;;;;;5526703;25;20073;-76
2024/04/10 12:11:13;;;;;;;1.50;0.00;;;15.60;92.90;;;;;;5525255;26;20013;-76
2024/04/10 12:13:40;;;;;;;0.75;0.00;;;15.90;93.70;;;;;;5527193;25;20401;-76
2024/04/10 12:16:06;;;;;;;0.20;0.00;;;16.10;91.20;;;;;;5524591;26;20012;-76
2024/04/10 12:18:32;;;;;;;1.38;0.08;;;16.20;92.30;;;;;;5524600;25;20002;-76
2024/04/10 12:20:58;;;;;;;0.82;0.00;;;16.50;92.40;;;;;;5523103;26;20012;-76
2024/04/10 12:23:25;;;;;;;5.70;0.47;;;16.80;91.00;;;;;;5517678;26;20009;-76
2024/04/10 12:25:50;;;;;;;0.60;0.20;;;16.60;90.70;;;;;;5524439;25;20580;-76
2024/04/10 12:28:16;;;;;;;1.75;0.00;;;16.30;89.90;;;;;;5521153;26;20001;-76
2024/04/10 12:30:41;;;;;;;1.25;0.03;;;16.30;89.90;;;;;;5523597;26;20464;-76
2024/04/10 12:33:07;;;;;;;1.80;0.15;;;16.50;91.90;;;;;;5523366;25;19997;-76
2024/04/10 12:38:17;;;;;;;2.53;0.00;;;16.80;90.30;;;;;;5522653;25;20087;-76
2024/04/10 12:40:52;;;;;;;1.38;0.08;;;16.90;90.40;;;;;;5523071;26;20697;-76
2024/04/10 12:43:17;;;;;;;1.85;0.30;;;16.90;90.60;;;;;;5523311;25;20009;-76
2024/04/10 12:45:43;;;;;;;4.38;0.60;;;17.20;89.30;;;;;;5529105;25;20001;-76
2024/04/10 12:48:09;;;;;;;1.98;0.43;;;16.70;89.80;;;;;;5521089;26;20003;-76
2024/04/10 12:50:36;;;;;;;1.90;0.00;;;16.70;89.40;;;;;;5523303;26;19998;-76
2024/04/10 12:53:01;;;;;;;0.45;0.03;;;16.90;88.20;;;;;;5523324;25;20009;-75
2024/04/10 12:55:27;;;;;;;0.82;0.00;;;16.90;87.10;;;;;;5523297;26;19998;-76